sensor_id;sensor_type;location;lat;lon;timestamp;pressure;altitude;pressure_sealevel;temperature;humidity
39141;BME280;24875;48.436;10.298;2023-03-08T00:01:12;94952.50;;;4.27;61.54
39141;BME280;24875;48.436;10.298;2023-03-08T00:03:39;94940.06;;;4.07;61.79
39141;BME280;24875;48.436;10.298;2023-03-08T00:06:07;94938.50;;;4.28;61.59
39141;BME280;24875;48.436;10.298;2023-03-08T00:08:34;94933.19;;;4.14;61.53
39141;BME280;24875;48.436;10.298;2023-03-08T00:11:04;94931.34;;;4.22;61.58
39141;BME280;24875;48.436;10.298;2023-03-08T00:13:30;94931.22;;;4.16;62.06
39141;BME280;24875;48.436;10.298;2023-03-08T00:15:59;94931.53;;;4.21;62.00
39141;BME280;24875;48.436;10.298;2023-03-08T00:18:25;94940.34;;;4.12;62.56
39141;BME280;24875;48.436;10.298;2023-03-08T00:20:57;94939.03;;;4.24;62.38
39141;BME280;24875;48.436;10.298;2023-03-08T00:23:24;94945.06;;;4.17;62.79
39141;BME280;24875;48.436;10.298;2023-03-08T00:25:50;94949.81;;;4.13;62.94
39141;BME280;24875;48.436;10.298;2023-03-08T00:28:17;94959.25;;;4.14;62.78
39141;BME280;24875;48.436;10.298;2023-03-08T00:30:43;94958.28;;;4.07;63.36
39141;BME280;24875;48.436;10.298;2023-03-08T00:33:11;94957.75;;;4.20;62.68
39141;BME280;24875;48.436;10.298;2023-03-08T00:35:38;94966.13;;;4.07;63.45
39141;BME280;24875;48.436;10.298;2023-03-08T00:38:04;94973.78;;;4.09;63.09
39141;BME280;24875;48.436;10.298;2023-03-08T00:40:31;94965.13;;;4.08;63.32
39141;BME280;24875;48.436;10.298;2023-03-08T00:42:57;94966.97;;;4.00;63.06
39141;BME280;24875;48.436;10.298;2023-03-08T00:45:24;94975.59;;;4.00;63.41
39141;BME280;24875;48.436;10.298;2023-03-08T00:47:50;94973.31;;;4.05;63.40
39141;BME280;24875;48.436;10.298;2023-03-08T00:50:18;94976.25;;;4.02;63.72
39141;BME280;24875;48.436;10.298;2023-03-08T00:52:45;94970.69;;;4.05;63.93
39141;BME280;24875;48.436;10.298;2023-03-08T00:55:11;94979.38;;;3.90;63.78
39141;BME280;24875;48.436;10.298;2023-03-08T00:57:38;94968.72;;;4.07;63.86
39141;BME280;24875;48.436;10.298;2023-03-08T01:00:05;94976.84;;;4.12;64.49
39141;BME280;24875;48.436;10.298;2023-03-08T01:02:35;94972.66;;;4.03;63.69
39141;BME280;24875;48.436;10.298;2023-03-08T01:05:01;94979.50;;;4.04;63.68
39141;BME280;24875;48.436;10.298;2023-03-08T01:07:29;94989.88;;;4.20;63.78
39141;BME280;24875;48.436;10.298;2023-03-08T01:09:55;94991.88;;;4.10;64.00
39141;BME280;24875;48.436;10.298;2023-03-08T01:12:22;94981.88;;;4.14;63.90
39141;BME280;24875;48.436;10.298;2023-03-08T01:14:49;94981.41;;;4.18;64.07
39141;BME280;24875;48.436;10.298;2023-03-08T01:17:16;94967.88;;;4.15;64.36
39141;BME280;24875;48.436;10.298;2023-03-08T01:19:42;94960.91;;;4.07;64.52
39141;BME280;24875;48.436;10.298;2023-03-08T01:22:09;94959.63;;;4.03;64.66
39141;BME280;24875;48.436;10.298;2023-03-08T01:24:36;94948.75;;;4.30;64.25
39141;BME280;24875;48.436;10.298;2023-03-08T01:27:03;94946.19;;;4.22;64.48
39141;BME280;24875;48.436;10.298;2023-03-08T01:29:29;94945.53;;;4.28;63.92
39141;BME280;24875;48.436;10.298;2023-03-08T01:31:56;94931.97;;;4.02;64.82
39141;BME280;24875;48.436;10.298;2023-03-08T01:34:22;94927.50;;;4.11;64.50
39141;BME280;24875;48.436;10.298;2023-03-08T01:36:49;94932.94;;;4.01;65.13
39141;BME280;24875;48.436;10.298;2023-03-08T01:39:15;94926.53;;;4.12;65.13
39141;BME280;24875;48.436;10.298;2023-03-08T01:41:43;94924.41;;;4.15;64.95
39141;BME280;24875;48.436;10.298;2023-03-08T01:44:13;94920.53;;;4.03;65.20
39141;BME280;24875;48.436;10.298;2023-03-08T01:46:40;94921.09;;;3.91;65.33
39141;BME280;24875;48.436;10.298;2023-03-08T01:49:09;94915.50;;;4.02;65.99
39141;BME280;24875;48.436;10.298;2023-03-08T01:51:39;94913.22;;;3.99;65.96
39141;BME280;24875;48.436;10.298;2023-03-08T01:54:10;94912.41;;;3.98;66.15
39141;BME280;24875;48.436;10.298;2023-03-08T01:56:39;94910.84;;;3.81;66.42
39141;BME280;24875;48.436;10.298;2023-03-08T01:59:08;94907.75;;;3.86;66.49
39141;BME280;24875;48.436;10.298;2023-03-08T02:01:35;94902.84;;;3.83;65.92
39141;BME280;24875;48.436;10.298;2023-03-08T02:04:02;94905.63;;;3.81;66.82
39141;BME280;24875;48.436;10.298;2023-03-08T02:06:29;94904.53;;;3.76;66.36
39141;BME280;24875;48.436;10.298;2023-03-08T02:08:55;94904.34;;;3.77;66.47
39141;BME280;24875;48.436;10.298;2023-03-08T02:11:23;94894.59;;;3.71;67.83
39141;BME280;24875;48.436;10.298;2023-03-08T02:13:50;94901.34;;;3.50;67.97
39141;BME280;24875;48.436;10.298;2023-03-08T02:16:20;94894.94;;;3.68;67.67
39141;BME280;24875;48.436;10.298;2023-03-08T02:18:51;94886.47;;;3.66;67.46
39141;BME280;24875;48.436;10.298;2023-03-08T02:21:18;94892.09;;;3.48;68.54
39141;BME280;24875;48.436;10.298;2023-03-08T02:23:46;94899.22;;;3.54;68.48
39141;BME280;24875;48.436;10.298;2023-03-08T02:26:12;94883.97;;;3.43;68.59
39141;BME280;24875;48.436;10.298;2023-03-08T02:28:39;94883.75;;;3.52;67.99
39141;BME280;24875;48.436;10.298;2023-03-08T02:31:05;94880.03;;;3.47;69.13
39141;BME280;24875;48.436;10.298;2023-03-08T02:33:32;94875.69;;;3.31;68.72
39141;BME280;24875;48.436;10.298;2023-03-08T02:36:00;94874.22;;;3.29;69.47
39141;BME280;24875;48.436;10.298;2023-03-08T02:38:26;94855.34;;;3.35;69.10
39141;BME280;24875;48.436;10.298;2023-03-08T02:40:54;94864.41;;;3.47;68.58
39141;BME280;24875;48.436;10.298;2023-03-08T02:43:21;94852.25;;;3.39;69.09
39141;BME280;24875;48.436;10.298;2023-03-08T02:45:47;94861.84;;;3.39;69.20
39141;BME280;24875;48.436;10.298;2023-03-08T02:48:15;94867.72;;;3.33;69.36
39141;BME280;24875;48.436;10.298;2023-03-08T02:50:41;94860.25;;;3.30;69.45
39141;BME280;24875;48.436;10.298;2023-03-08T02:53:08;94855.50;;;3.41;69.70
39141;BME280;24875;48.436;10.298;2023-03-08T02:55:35;94856.97;;;3.36;69.97
39141;BME280;24875;48.436;10.298;2023-03-08T02:58:04;94857.94;;;3.43;69.44
39141;BME280;24875;48.436;10.298;2023-03-08T03:00:31;94851.13;;;3.26;69.72
39141;BME280;24875;48.436;10.298;2023-03-08T03:02:58;94847.03;;;3.39;69.53
39141;BME280;24875;48.436;10.298;2023-03-08T03:05:24;94835.81;;;3.31;69.63
39141;BME280;24875;48.436;10.298;2023-03-08T03:07:51;94837.56;;;3.46;69.84
39141;BME280;24875;48.436;10.298;2023-03-08T03:10:19;94836.13;;;3.44;70.02
39141;BME280;24875;48.436;10.298;2023-03-08T03:12:46;94832.53;;;3.45;69.65
39141;BME280;24875;48.436;10.298;2023-03-08T03:15:14;94840.47;;;3.59;69.79
39141;BME280;24875;48.436;10.298;2023-03-08T03:17:40;94832.84;;;3.50;69.96
39141;BME280;24875;48.436;10.298;2023-03-08T03:20:08;94827.00;;;3.48;70.69
39141;BME280;24875;48.436;10.298;2023-03-08T03:22:35;94824.84;;;3.51;70.31
39141;BME280;24875;48.436;10.298;2023-03-08T03:25:02;94814.91;;;3.55;70.43
39141;BME280;24875;48.436;10.298;2023-03-08T03:27:29;94824.53;;;3.54;71.09
39141;BME280;24875;48.436;10.298;2023-03-08T03:29:56;94815.56;;;3.49;71.33
39141;BME280;24875;48.436;10.298;2023-03-08T03:32:23;94825.16;;;3.64;71.86
39141;BME280;24875;48.436;10.298;2023-03-08T03:34:50;94819.47;;;3.61;71.32
39141;BME280;24875;48.436;10.298;2023-03-08T03:37:16;94806.78;;;3.50;71.55
39141;BME280;24875;48.436;10.298;2023-03-08T03:39:43;94811.97;;;3.58;71.21
39141;BME280;24875;48.436;10.298;2023-03-08T03:42:10;94795.31;;;3.66;71.17
39141;BME280;24875;48.436;10.298;2023-03-08T03:44:36;94795.84;;;3.62;72.00
39141;BME280;24875;48.436;10.298;2023-03-08T03:47:03;94795.06;;;3.54;71.80
39141;BME280;24875;48.436;10.298;2023-03-08T03:49:31;94797.25;;;3.72;71.59
39141;BME280;24875;48.436;10.298;2023-03-08T03:51:57;94799.22;;;3.70;71.39
39141;BME280;24875;48.436;10.298;2023-03-08T03:54:24;94791.38;;;3.78;71.18
39141;BME280;24875;48.436;10.298;2023-03-08T03:56:51;94797.25;;;3.72;71.52
39141;BME280;24875;48.436;10.298;2023-03-08T03:59:17;94783.84;;;3.83;71.80
39141;BME280;24875;48.436;10.298;2023-03-08T04:01:43;94785.19;;;3.71;71.45
39141;BME280;24875;48.436;10.298;2023-03-08T04:04:10;94777.25;;;3.73;71.45
39141;BME280;24875;48.436;10.298;2023-03-08T04:06:38;94782.34;;;3.89;72.02
39141;BME280;24875;48.436;10.298;2023-03-08T04:09:06;94777.63;;;3.92;71.52
39141;BME280;24875;48.436;10.298;2023-03-08T04:11:35;94781.03;;;3.93;72.15
39141;BME280;24875;48.436;10.298;2023-03-08T04:14:03;94779.22;;;3.93;71.30
39141;BME280;24875;48.436;10.298;2023-03-08T04:16:31;94768.47;;;3.96;71.88
39141;BME280;24875;48.436;10.298;2023-03-08T04:18:59;94769.81;;;3.84;72.17
39141;BME280;24875;48.436;10.298;2023-03-08T04:21:26;94764.03;;;3.74;72.76
39141;BME280;24875;48.436;10.298;2023-03-08T04:23:55;94758.59;;;3.84;72.97
39141;BME280;24875;48.436;10.298;2023-03-08T04:26:23;94758.25;;;3.87;72.79
39141;BME280;24875;48.436;10.298;2023-03-08T04:28:49;94756.66;;;3.86;72.33
39141;BME280;24875;48.436;10.298;2023-03-08T04:31:17;94744.81;;;3.75;72.80
39141;BME280;24875;48.436;10.298;2023-03-08T04:33:44;94745.50;;;3.69;73.14
39141;BME280;24875;48.436;10.298;2023-03-08T04:36:11;94737.75;;;3.62;73.75
39141;BME280;24875;48.436;10.298;2023-03-08T04:38:38;94735.56;;;3.73;73.52
39141;BME280;24875;48.436;10.298;2023-03-08T04:41:06;94729.19;;;3.75;74.11
39141;BME280;24875;48.436;10.298;2023-03-08T04:43:36;94723.81;;;3.77;73.67
39141;BME280;24875;48.436;10.298;2023-03-08T04:46:03;94713.53;;;3.83;73.78
39141;BME280;24875;48.436;10.298;2023-03-08T04:48:30;94711.25;;;3.80;73.60
39141;BME280;24875;48.436;10.298;2023-03-08T04:50:58;94706.16;;;3.87;73.80
39141;BME280;24875;48.436;10.298;2023-03-08T04:53:26;94703.91;;;3.84;74.63
39141;BME280;24875;48.436;10.298;2023-03-08T04:55:53;94698.13;;;3.96;73.58
39141;BME280;24875;48.436;10.298;2023-03-08T04:58:21;94703.78;;;4.00;73.45
39141;BME280;24875;48.436;10.298;2023-03-08T05:00:48;94707.56;;;3.97;73.21
39141;BME280;24875;48.436;10.298;2023-03-08T05:03:14;94698.50;;;3.85;74.06
39141;BME280;24875;48.436;10.298;2023-03-08T05:05:44;94702.56;;;4.10;73.75
39141;BME280;24875;48.436;10.298;2023-03-08T05:08:11;94704.53;;;3.86;73.58
39141;BME280;24875;48.436;10.298;2023-03-08T05:10:37;94699.38;;;4.00;73.43
39141;BME280;24875;48.436;10.298;2023-03-08T05:13:04;94702.97;;;3.99;73.65
39141;BME280;24875;48.436;10.298;2023-03-08T05:15:31;94692.44;;;4.15;73.49
39141;BME280;24875;48.436;10.298;2023-03-08T05:17:58;94695.63;;;4.03;74.45
39141;BME280;24875;48.436;10.298;2023-03-08T05:20:24;94702.69;;;3.94;74.64
39141;BME280;24875;48.436;10.298;2023-03-08T05:22:51;94698.84;;;4.05;74.65
39141;BME280;24875;48.436;10.298;2023-03-08T05:25:17;94698.28;;;3.95;75.11
39141;BME280;24875;48.436;10.298;2023-03-08T05:27:44;94699.75;;;3.97;75.19
39141;BME280;24875;48.436;10.298;2023-03-08T05:30:11;94697.00;;;4.13;74.79
39141;BME280;24875;48.436;10.298;2023-03-08T05:32:39;94697.34;;;4.10;75.64
39141;BME280;24875;48.436;10.298;2023-03-08T05:35:06;94690.16;;;4.12;74.53
39141;BME280;24875;48.436;10.298;2023-03-08T05:37:33;94684.16;;;4.12;74.83
39141;BME280;24875;48.436;10.298;2023-03-08T05:39:59;94683.34;;;4.11;74.24
39141;BME280;24875;48.436;10.298;2023-03-08T05:42:26;94676.16;;;4.13;74.75
39141;BME280;24875;48.436;10.298;2023-03-08T05:44:55;94669.31;;;4.12;74.34
39141;BME280;24875;48.436;10.298;2023-03-08T05:47:22;94675.88;;;4.22;74.45
39141;BME280;24875;48.436;10.298;2023-03-08T05:49:51;94668.19;;;4.29;74.25
39141;BME280;24875;48.436;10.298;2023-03-08T05:52:17;94665.53;;;4.15;74.90
39141;BME280;24875;48.436;10.298;2023-03-08T05:54:43;94669.78;;;4.16;74.19
39141;BME280;24875;48.436;10.298;2023-03-08T05:57:10;94673.25;;;4.08;74.90
39141;BME280;24875;48.436;10.298;2023-03-08T05:59:37;94675.34;;;4.13;74.45
39141;BME280;24875;48.436;10.298;2023-03-08T06:02:03;94664.81;;;4.06;74.69
39141;BME280;24875;48.436;10.298;2023-03-08T06:04:30;94670.34;;;4.03;74.84
39141;BME280;24875;48.436;10.298;2023-03-08T06:06:58;94675.63;;;4.18;74.74
39141;BME280;24875;48.436;10.298;2023-03-08T06:09:24;94678.94;;;4.12;74.66
39141;BME280;24875;48.436;10.298;2023-03-08T06:11:51;94679.72;;;4.12;74.62
39141;BME280;24875;48.436;10.298;2023-03-08T06:14:17;94680.38;;;4.14;74.17
39141;BME280;24875;48.436;10.298;2023-03-08T06:16:44;94684.59;;;4.15;75.16
39141;BME280;24875;48.436;10.298;2023-03-08T06:19:12;94677.59;;;4.16;74.64
39141;BME280;24875;48.436;10.298;2023-03-08T06:21:39;94682.28;;;4.20;75.21
39141;BME280;24875;48.436;10.298;2023-03-08T06:24:07;94666.75;;;4.26;75.21
39141;BME280;24875;48.436;10.298;2023-03-08T06:26:33;94668.59;;;4.18;75.35
39141;BME280;24875;48.436;10.298;2023-03-08T06:29:00;94667.19;;;4.30;74.62
39141;BME280;24875;48.436;10.298;2023-03-08T06:31:26;94659.66;;;4.35;74.37
39141;BME280;24875;48.436;10.298;2023-03-08T06:33:53;94657.78;;;4.29;74.57
39141;BME280;24875;48.436;10.298;2023-03-08T06:36:20;94657.47;;;4.24;75.17
39141;BME280;24875;48.436;10.298;2023-03-08T06:38:48;94663.50;;;4.24;75.22
39141;BME280;24875;48.436;10.298;2023-03-08T06:41:18;94665.69;;;4.35;75.72
39141;BME280;24875;48.436;10.298;2023-03-08T06:43:45;94658.38;;;4.31;74.98
39141;BME280;24875;48.436;10.298;2023-03-08T06:46:13;94649.13;;;4.43;74.71
39141;BME280;24875;48.436;10.298;2023-03-08T06:48:41;94643.72;;;4.30;75.33
39141;BME280;24875;48.436;10.298;2023-03-08T06:51:08;94640.59;;;4.34;75.46
39141;BME280;24875;48.436;10.298;2023-03-08T06:53:35;94640.41;;;4.36;75.68
39141;BME280;24875;48.436;10.298;2023-03-08T06:56:02;94641.16;;;4.44;75.00
39141;BME280;24875;48.436;10.298;2023-03-08T06:58:32;94647.72;;;4.55;75.66
39141;BME280;24875;48.436;10.298;2023-03-08T07:00:59;94642.84;;;4.52;74.95
39141;BME280;24875;48.436;10.298;2023-03-08T07:03:29;94636.81;;;4.51;75.60
39141;BME280;24875;48.436;10.298;2023-03-08T07:05:57;94641.53;;;4.56;75.96
39141;BME280;24875;48.436;10.298;2023-03-08T07:08:24;94635.22;;;4.65;75.12
39141;BME280;24875;48.436;10.298;2023-03-08T07:10:50;94630.81;;;4.65;75.68
39141;BME280;24875;48.436;10.298;2023-03-08T07:13:16;94625.88;;;4.56;75.76
39141;BME280;24875;48.436;10.298;2023-03-08T07:15:45;94622.19;;;4.65;76.34
39141;BME280;24875;48.436;10.298;2023-03-08T07:18:11;94615.97;;;4.66;76.08
39141;BME280;24875;48.436;10.298;2023-03-08T07:20:38;94612.25;;;4.75;76.26
39141;BME280;24875;48.436;10.298;2023-03-08T07:23:04;94591.31;;;4.82;75.82
39141;BME280;24875;48.436;10.298;2023-03-08T07:25:31;94580.50;;;4.85;75.74
39141;BME280;24875;48.436;10.298;2023-03-08T07:27:58;94566.75;;;5.12;75.19
39141;BME280;24875;48.436;10.298;2023-03-08T07:30:24;94565.13;;;5.11;75.66
39141;BME280;24875;48.436;10.298;2023-03-08T07:32:53;94565.19;;;5.32;74.72
39141;BME280;24875;48.436;10.298;2023-03-08T07:35:19;94566.91;;;5.25;75.00
39141;BME280;24875;48.436;10.298;2023-03-08T07:37:46;94565.84;;;5.41;74.19
39141;BME280;24875;48.436;10.298;2023-03-08T07:40:15;94552.81;;;5.61;73.72
39141;BME280;24875;48.436;10.298;2023-03-08T07:42:42;94560.13;;;5.72;73.88
39141;BME280;24875;48.436;10.298;2023-03-08T07:45:10;94560.69;;;5.89;73.51
39141;BME280;24875;48.436;10.298;2023-03-08T07:47:36;94555.03;;;5.85;73.97
39141;BME280;24875;48.436;10.298;2023-03-08T07:50:05;94541.09;;;6.05;74.04
39141;BME280;24875;48.436;10.298;2023-03-08T07:52:32;94544.63;;;5.92;72.99
39141;BME280;24875;48.436;10.298;2023-03-08T07:54:58;94540.28;;;5.99;73.50
39141;BME280;24875;48.436;10.298;2023-03-08T07:57:26;94532.91;;;6.08;72.88
39141;BME280;24875;48.436;10.298;2023-03-08T07:59:52;94527.53;;;6.16;71.67
39141;BME280;24875;48.436;10.298;2023-03-08T08:02:19;94526.53;;;6.17;71.81
39141;BME280;24875;48.436;10.298;2023-03-08T08:04:45;94524.34;;;6.27;71.67
39141;BME280;24875;48.436;10.298;2023-03-08T08:07:14;94520.28;;;6.52;71.00
39141;BME280;24875;48.436;10.298;2023-03-08T08:09:41;94525.50;;;6.52;71.85
39141;BME280;24875;48.436;10.298;2023-03-08T08:12:08;94518.34;;;6.67;71.13
39141;BME280;24875;48.436;10.298;2023-03-08T08:14:35;94514.53;;;6.29;71.06
39141;BME280;24875;48.436;10.298;2023-03-08T08:17:01;94515.59;;;6.41;71.54
39141;BME280;24875;48.436;10.298;2023-03-08T08:19:28;94517.25;;;6.55;71.44
39141;BME280;24875;48.436;10.298;2023-03-08T08:21:56;94504.72;;;6.38;71.70
39141;BME280;24875;48.436;10.298;2023-03-08T08:24:24;94509.63;;;6.54;71.71
39141;BME280;24875;48.436;10.298;2023-03-08T08:26:50;94493.63;;;6.76;70.64
39141;BME280;24875;48.436;10.298;2023-03-08T08:29:17;94497.22;;;6.75;69.86
39141;BME280;24875;48.436;10.298;2023-03-08T08:31:43;94508.81;;;6.53;70.28
39141;BME280;24875;48.436;10.298;2023-03-08T08:34:10;94496.84;;;6.78;70.32
39141;BME280;24875;48.436;10.298;2023-03-08T08:36:36;94493.53;;;6.57;70.21
39141;BME280;24875;48.436;10.298;2023-03-08T08:39:03;94499.84;;;6.75;70.33
39141;BME280;24875;48.436;10.298;2023-03-08T08:41:31;94508.88;;;6.66;70.32
39141;BME280;24875;48.436;10.298;2023-03-08T08:43:58;94495.63;;;6.74;70.67
39141;BME280;24875;48.436;10.298;2023-03-08T08:46:25;94487.50;;;6.63;70.85
39141;BME280;24875;48.436;10.298;2023-03-08T08:48:52;94473.63;;;6.62;71.13
39141;BME280;24875;48.436;10.298;2023-03-08T08:51:19;94463.78;;;6.70;70.14
39141;BME280;24875;48.436;10.298;2023-03-08T08:53:46;94452.72;;;6.62;70.91
39141;BME280;24875;48.436;10.298;2023-03-08T08:56:13;94446.75;;;6.87;70.38
39141;BME280;24875;48.436;10.298;2023-03-08T08:58:42;94427.22;;;6.90;70.58
39141;BME280;24875;48.436;10.298;2023-03-08T09:01:13;94417.16;;;7.00;72.69
39141;BME280;24875;48.436;10.298;2023-03-08T09:03:40;94415.28;;;6.81;73.00
39141;BME280;24875;48.436;10.298;2023-03-08T09:06:06;94401.06;;;6.96;73.62
39141;BME280;24875;48.436;10.298;2023-03-08T09:08:33;94406.63;;;6.74;74.64
39141;BME280;24875;48.436;10.298;2023-03-08T09:11:03;94408.28;;;6.88;74.03
39141;BME280;24875;48.436;10.298;2023-03-08T09:13:30;94398.53;;;6.56;75.09
39141;BME280;24875;48.436;10.298;2023-03-08T09:15:58;94403.78;;;6.69;75.16
39141;BME280;24875;48.436;10.298;2023-03-08T09:18:25;94391.50;;;6.63;75.23
39141;BME280;24875;48.436;10.298;2023-03-08T09:20:52;94395.28;;;6.54;75.08
39141;BME280;24875;48.436;10.298;2023-03-08T09:23:18;94386.88;;;6.65;74.41
39141;BME280;24875;48.436;10.298;2023-03-08T09:25:53;94378.47;;;6.89;74.12
39141;BME280;24875;48.436;10.298;2023-03-08T09:28:20;94399.97;;;6.71;74.82
39141;BME280;24875;48.436;10.298;2023-03-08T09:30:46;94401.72;;;6.52;74.78
39141;BME280;24875;48.436;10.298;2023-03-08T09:33:14;94402.81;;;6.83;73.74
39141;BME280;24875;48.436;10.298;2023-03-08T09:35:41;94390.34;;;6.85;73.22
39141;BME280;24875;48.436;10.298;2023-03-08T09:38:08;94391.31;;;6.65;73.11
39141;BME280;24875;48.436;10.298;2023-03-08T09:40:39;94382.50;;;6.91;73.09
39141;BME280;24875;48.436;10.298;2023-03-08T09:43:18;94380.28;;;6.88;73.07
39141;BME280;24875;48.436;10.298;2023-03-08T09:45:51;94371.25;;;7.17;73.11
39141;BME280;24875;48.436;10.298;2023-03-08T09:48:21;94369.44;;;7.04;74.05
39141;BME280;24875;48.436;10.298;2023-03-08T09:50:52;94378.91;;;6.99;73.56
39141;BME280;24875;48.436;10.298;2023-03-08T09:53:24;94368.81;;;7.02;72.72
39141;BME280;24875;48.436;10.298;2023-03-08T09:55:55;94369.44;;;7.04;73.76
39141;BME280;24875;48.436;10.298;2023-03-08T09:58:36;94362.78;;;7.21;71.80
39141;BME280;24875;48.436;10.298;2023-03-08T10:01:16;94346.06;;;7.28;71.44
39141;BME280;24875;48.436;10.298;2023-03-08T10:04:21;94361.50;;;7.82;71.23
39141;BME280;24875;48.436;10.298;2023-03-08T10:06:58;94351.03;;;7.75;70.85
39141;BME280;24875;48.436;10.298;2023-03-08T10:09:31;94345.75;;;7.88;70.29
39141;BME280;24875;48.436;10.298;2023-03-08T10:12:11;94347.19;;;7.84;70.03
39141;BME280;24875;48.436;10.298;2023-03-08T10:14:44;94341.28;;;7.95;69.92
39141;BME280;24875;48.436;10.298;2023-03-08T10:17:16;94324.31;;;8.04;70.00
39141;BME280;24875;48.436;10.298;2023-03-08T10:19:51;94322.66;;;8.09;69.55
39141;BME280;24875;48.436;10.298;2023-03-08T10:22:24;94327.50;;;8.19;69.55
39141;BME280;24875;48.436;10.298;2023-03-08T10:24:54;94328.63;;;8.36;69.07
39141;BME280;24875;48.436;10.298;2023-03-08T10:27:25;94324.63;;;8.33;68.56
39141;BME280;24875;48.436;10.298;2023-03-08T10:29:54;94320.84;;;8.23;69.51
39141;BME280;24875;48.436;10.298;2023-03-08T10:32:22;94311.28;;;8.35;70.05
39141;BME280;24875;48.436;10.298;2023-03-08T10:34:50;94305.81;;;8.73;72.54
39141;BME280;24875;48.436;10.298;2023-03-08T10:37:19;94309.63;;;8.77;68.13
39141;BME280;24875;48.436;10.298;2023-03-08T10:39:48;94307.28;;;8.63;68.56
39141;BME280;24875;48.436;10.298;2023-03-08T10:42:18;94302.38;;;8.73;68.34
39141;BME280;24875;48.436;10.298;2023-03-08T10:44:53;94300.13;;;8.76;68.98
39141;BME280;24875;48.436;10.298;2023-03-08T10:47:21;94302.19;;;8.68;69.13
39141;BME280;24875;48.436;10.298;2023-03-08T10:49:48;94294.53;;;8.66;68.86
39141;BME280;24875;48.436;10.298;2023-03-08T10:52:25;94301.44;;;8.92;69.09
39141;BME280;24875;48.436;10.298;2023-03-08T10:55:03;94294.25;;;9.05;69.68
39141;BME280;24875;48.436;10.298;2023-03-08T10:57:31;94300.16;;;9.01;71.27
39141;BME280;24875;48.436;10.298;2023-03-08T11:00:02;94304.78;;;9.05;70.30
39141;BME280;24875;48.436;10.298;2023-03-08T11:02:35;94296.22;;;8.85;70.90
39141;BME280;24875;48.436;10.298;2023-03-08T11:05:17;94304.50;;;9.13;71.08
39141;BME280;24875;48.436;10.298;2023-03-08T11:07:51;94288.19;;;9.05;72.11
39141;BME280;24875;48.436;10.298;2023-03-08T11:10:20;94315.44;;;9.10;71.35
39141;BME280;24875;48.436;10.298;2023-03-08T11:12:49;94307.22;;;9.00;71.92
39141;BME280;24875;48.436;10.298;2023-03-08T11:15:17;94299.53;;;9.05;71.79
39141;BME280;24875;48.436;10.298;2023-03-08T11:17:52;94298.53;;;9.24;71.76
39141;BME280;24875;48.436;10.298;2023-03-08T11:20:24;94297.03;;;9.34;72.29
39141;BME280;24875;48.436;10.298;2023-03-08T11:23:12;94295.91;;;9.48;71.21
39141;BME280;24875;48.436;10.298;2023-03-08T11:25:44;94286.81;;;9.44;71.95
39141;BME280;24875;48.436;10.298;2023-03-08T11:28:35;94283.56;;;9.49;72.11
39141;BME280;24875;48.436;10.298;2023-03-08T11:31:13;94282.09;;;9.70;71.98
39141;BME280;24875;48.436;10.298;2023-03-08T11:34:09;94274.50;;;9.80;71.92
39141;BME280;24875;48.436;10.298;2023-03-08T11:36:45;94295.78;;;9.79;73.08
39141;BME280;24875;48.436;10.298;2023-03-08T11:39:16;94296.41;;;9.74;73.13
39141;BME280;24875;48.436;10.298;2023-03-08T11:41:51;94272.59;;;9.87;73.35
39141;BME280;24875;48.436;10.298;2023-03-08T11:44:29;94253.16;;;9.88;72.99
39141;BME280;24875;48.436;10.298;2023-03-08T11:47:17;94266.47;;;10.11;72.91
39141;BME280;24875;48.436;10.298;2023-03-08T11:49:53;94267.63;;;10.15;73.06
39141;BME280;24875;48.436;10.298;2023-03-08T11:52:29;94272.03;;;10.21;73.35
39141;BME280;24875;48.436;10.298;2023-03-08T11:55:30;94279.06;;;10.38;73.01
39141;BME280;24875;48.436;10.298;2023-03-08T11:58:02;94286.53;;;10.41;73.23
39141;BME280;24875;48.436;10.298;2023-03-08T12:00:35;94285.91;;;10.10;73.46
39141;BME280;24875;48.436;10.298;2023-03-08T12:03:05;94275.09;;;10.00;74.58
39141;BME280;24875;48.436;10.298;2023-03-08T12:05:40;94274.34;;;10.29;73.77
39141;BME280;24875;48.436;10.298;2023-03-08T12:08:12;94279.16;;;10.32;74.27
39141;BME280;24875;48.436;10.298;2023-03-08T12:10:46;94269.53;;;10.26;74.86
39141;BME280;24875;48.436;10.298;2023-03-08T12:13:19;94272.00;;;10.39;74.89
39141;BME280;24875;48.436;10.298;2023-03-08T12:15:48;94259.31;;;10.47;74.43
39141;BME280;24875;48.436;10.298;2023-03-08T12:18:20;94253.66;;;10.62;74.41
39141;BME280;24875;48.436;10.298;2023-03-08T12:20:49;94258.31;;;10.60;74.73
39141;BME280;24875;48.436;10.298;2023-03-08T12:23:25;94266.03;;;10.43;74.53
39141;BME280;24875;48.436;10.298;2023-03-08T12:26:01;94258.97;;;10.44;74.84
39141;BME280;24875;48.436;10.298;2023-03-08T12:28:33;94247.66;;;10.55;75.39
39141;BME280;24875;48.436;10.298;2023-03-08T12:31:12;94257.81;;;10.81;74.86
39141;BME280;24875;48.436;10.298;2023-03-08T12:33:44;94246.31;;;10.64;75.65
39141;BME280;24875;48.436;10.298;2023-03-08T12:36:11;94263.44;;;10.55;76.12
39141;BME280;24875;48.436;10.298;2023-03-08T12:38:39;94275.72;;;10.61;76.49
39141;BME280;24875;48.436;10.298;2023-03-08T12:41:20;94263.09;;;10.81;76.55
39141;BME280;24875;48.436;10.298;2023-03-08T12:43:58;94270.78;;;10.93;76.29
39141;BME280;24875;48.436;10.298;2023-03-08T12:46:24;94261.22;;;10.70;77.39
39141;BME280;24875;48.436;10.298;2023-03-08T12:48:51;94262.63;;;10.84;77.37
39141;BME280;24875;48.436;10.298;2023-03-08T12:51:20;94266.88;;;10.85;77.92
39141;BME280;24875;48.436;10.298;2023-03-08T12:53:57;94256.03;;;11.15;76.84
39141;BME280;24875;48.436;10.298;2023-03-08T12:56:31;94263.94;;;11.04;77.77
39141;BME280;24875;48.436;10.298;2023-03-08T12:59:00;94273.00;;;11.19;77.74
39141;BME280;24875;48.436;10.298;2023-03-08T13:01:36;94270.38;;;11.42;77.46
39141;BME280;24875;48.436;10.298;2023-03-08T13:04:05;94265.91;;;11.77;76.51
39141;BME280;24875;48.436;10.298;2023-03-08T13:06:51;94281.97;;;11.64;76.68
39141;BME280;24875;48.436;10.298;2023-03-08T13:09:25;94287.22;;;11.41;78.16